Time;durP1;ratioP1;P1;durP2;ratioP2;P2;SDS_P1;SDS_P2;PMS_P1;PMS_P2;Temp;Humidity;BMP_temperature;BMP_pressure;BME280_temperature;BME280_humidity;BME280_pressure;Samples;Min_cycle;Max_cycle;Signal;HPM_P1;HPM_P2
2023/01/30 00:02:06;;;;;;;74.32;29.40;;;;;;;;;;6084693;23;20022;-80
2023/01/30 00:04:52;;;;;;;66.95;28.30;;;;;;;;;;6105241;23;20713;-81
2023/01/30 00:07:37;;;;;;;64.65;28.38;;;;;;;;;;6085507;23;20022;-82
2023/01/30 00:10:23;;;;;;;66.20;27.75;;;;;;;;;;6107368;23;20022;-81
2023/01/30 00:13:08;;;;;;;67.80;27.85;;;;;;;;;;6085217;23;20023;-83
2023/01/30 00:15:53;;;;;;;57.60;26.55;;;;;;;;;;6106329;23;20444;-81
2023/01/30 00:18:39;;;;;;;56.55;25.60;;;;;;;;;;6106463;23;20018;-81
2023/01/30 00:21:24;;;;;;;64.78;26.65;;;;;;;;;;6105934;23;20023;-82
2023/01/30 00:24:09;;;;;;;71.82;29.70;;;;;;;;;;6106821;23;20026;-82
2023/01/30 00:26:55;;;;;;;53.92;24.92;;;;;;;;;;6105503;23;20349;-82
2023/01/30 00:29:40;;;;;;;60.08;26.10;;;;;;;;;;6107109;23;20015;-81
2023/01/30 00:32:26;;;;;;;58.60;24.90;;;;;;;;;;6106658;23;20023;-81
2023/01/30 00:35:11;;;;;;;55.40;21.23;;;;;;;;;;6107217;23;20019;-81
2023/01/30 00:37:58;;;;;;;55.47;23.15;;;;;;;;;;6107076;23;20027;-80
2023/01/30 00:40:42;;;;;;;55.17;23.30;;;;;;;;;;6085175;23;20023;-82
2023/01/30 00:49:37;;;;;;;56.22;22.35;;;;;;;;;;6107737;23;20452;-81
2023/01/30 00:52:24;;;;;;;71.20;28.45;;;;;;;;;;6087273;23;20022;-81
2023/01/30 00:55:10;;;;;;;73.80;27.30;;;;;;;;;;6107065;23;20023;-80
2023/01/30 00:57:56;;;;;;;71.15;27.75;;;;;;;;;;6109115;23;20018;-81
2023/01/30 01:00:44;;;;;;;62.35;26.83;;;;;;;;;;6107122;23;20077;-80
2023/01/30 01:03:29;;;;;;;57.40;25.08;;;;;;;;;;6107807;23;20433;-81
2023/01/30 01:06:15;;;;;;;58.00;23.63;;;;;;;;;;6108800;23;20372;-80
2023/01/30 01:09:04;;;;;;;63.40;26.85;;;;;;;;;;6106965;23;20026;-80
2023/01/30 01:11:49;;;;;;;55.70;23.02;;;;;;;;;;6108988;23;20018;-81
2023/01/30 01:14:34;;;;;;;57.83;24.13;;;;;;;;;;6106755;23;20078;-80
2023/01/30 01:17:20;;;;;;;54.00;23.20;;;;;;;;;;6087139;23;20448;-81
2023/01/30 01:20:08;;;;;;;54.67;23.80;;;;;;;;;;6108844;23;20018;-81
2023/01/30 01:22:55;;;;;;;57.33;23.08;;;;;;;;;;6057753;23;20023;-80
2023/01/30 01:25:40;;;;;;;67.65;26.10;;;;;;;;;;6078935;23;20023;-81
2023/01/30 01:28:25;;;;;;;57.00;24.33;;;;;;;;;;6058345;23;20022;-80
2023/01/30 01:31:12;;;;;;;59.25;24.30;;;;;;;;;;6079512;23;20022;-81
2023/01/30 01:33:58;;;;;;;53.80;22.75;;;;;;;;;;6079550;23;20023;-80
2023/01/30 01:36:48;;;;;;;51.95;22.08;;;;;;;;;;6077770;23;20023;-80
2023/01/30 01:42:38;;;;;;;53.60;21.75;;;;;;;;;;6077653;23;20018;-81
2023/01/30 01:45:23;;;;;;;48.50;21.05;;;;;;;;;;6078214;23;20456;-81
2023/01/30 01:48:21;;;;;;;47.38;19.65;;;;;;;;;;6079259;23;20018;-81
2023/01/30 01:51:29;;;;;;;43.97;18.55;;;;;;;;;;6077567;23;20019;-81
2023/01/30 01:54:21;;;;;;;45.53;19.52;;;;;;;;;;6078116;23;20023;-81
2023/01/30 01:57:12;;;;;;;46.75;19.15;;;;;;;;;;6077549;23;20022;-80
2023/01/30 02:00:06;;;;;;;38.90;18.30;;;;;;;;;;6078327;23;20046;-81
2023/01/30 02:03:05;;;;;;;44.03;19.75;;;;;;;;;;6078183;23;20026;-81
2023/01/30 02:05:53;;;;;;;42.28;18.15;;;;;;;;;;6078681;23;20452;-80
2023/01/30 02:08:44;;;;;;;41.00;18.02;;;;;;;;;;6078226;23;20457;-81
2023/01/30 02:11:38;;;;;;;43.05;18.63;;;;;;;;;;6077377;23;20349;-81
2023/01/30 02:14:23;;;;;;;40.20;19.25;;;;;;;;;;6077885;23;20022;-80
2023/01/30 02:17:09;;;;;;;49.03;19.40;;;;;;;;;;6078456;23;20015;-80
2023/01/30 02:19:58;;;;;;;41.85;18.75;;;;;;;;;;6077325;23;20019;-81
2023/01/30 02:23:12;;;;;;;45.38;19.52;;;;;;;;;;6086347;23;20340;-81
2023/01/30 02:26:07;;;;;;;38.90;18.00;;;;;;;;;;6085941;23;20022;-80
2023/01/30 02:29:05;;;;;;;41.70;18.52;;;;;;;;;;6086607;23;20019;-80
2023/01/30 02:32:05;;;;;;;44.58;18.80;;;;;;;;;;6085920;23;20022;-81
2023/01/30 02:35:33;;;;;;;38.30;18.73;;;;;;;;;;6086360;23;20018;-80
2023/01/30 02:38:40;;;;;;;42.75;17.63;;;;;;;;;;5924590;24;20021;-79
2023/01/30 02:41:27;;;;;;;38.78;16.85;;;;;;;;;;5963074;24;20347;-80
2023/01/30 02:44:28;;;;;;;37.20;16.80;;;;;;;;;;6086362;23;20026;-79
2023/01/30 02:47:24;;;;;;;39.78;17.23;;;;;;;;;;6085669;23;20440;-81
2023/01/30 02:50:12;;;;;;;40.35;17.42;;;;;;;;;;6086148;23;20018;-81
2023/01/30 02:52:57;;;;;;;38.05;17.60;;;;;;;;;;6107641;23;20026;-81
2023/01/30 02:55:42;;;;;;;36.10;16.73;;;;;;;;;;6085799;23;20023;-81
2023/01/30 02:58:33;;;;;;;40.80;18.50;;;;;;;;;;6086199;23;20452;-80
2023/01/30 03:01:37;;;;;;;39.95;17.33;;;;;;;;;;6065532;23;20022;-80
2023/01/30 03:04:34;;;;;;;41.53;16.73;;;;;;;;;;6107958;23;20026;-80
2023/01/30 03:08:04;;;;;;;39.88;16.38;;;;;;;;;;6086066;23;20014;-81
2023/01/30 03:11:00;;;;;;;35.05;15.57;;;;;;;;;;5943171;24;20025;-80
2023/01/30 03:14:10;;;;;;;35.05;15.13;;;;;;;;;;5943283;24;20020;-80
2023/01/30 03:16:58;;;;;;;35.90;15.82;;;;;;;;;;6065427;23;20018;-81
2023/01/30 03:19:44;;;;;;;35.97;16.15;;;;;;;;;;6065994;23;20018;-81
2023/01/30 03:22:29;;;;;;;45.15;15.93;;;;;;;;;;6102018;23;20019;-80
2023/01/30 03:25:19;;;;;;;37.25;17.17;;;;;;;;;;6106289;23;20022;-80
2023/01/30 03:28:05;;;;;;;43.58;18.52;;;;;;;;;;6085492;23;20436;-80
2023/01/30 03:30:51;;;;;;;40.42;18.67;;;;;;;;;;6085684;23;20022;-81
2023/01/30 03:33:36;;;;;;;38.40;18.27;;;;;;;;;;6106717;23;20019;-80
2023/01/30 03:36:21;;;;;;;38.35;15.57;;;;;;;;;;6105657;23;20018;-80
2023/01/30 03:39:07;;;;;;;45.67;18.35;;;;;;;;;;6106127;23;20018;-81
2023/01/30 03:41:53;;;;;;;44.03;18.35;;;;;;;;;;6105729;23;20444;-81
2023/01/30 03:44:39;;;;;;;39.83;18.23;;;;;;;;;;6085924;23;20026;-81
2023/01/30 03:47:24;;;;;;;39.38;17.27;;;;;;;;;;6107165;23;20022;-79
2023/01/30 03:50:10;;;;;;;38.78;16.35;;;;;;;;;;6105604;23;20019;-81
2023/01/30 03:52:55;;;;;;;37.15;17.00;;;;;;;;;;6085694;23;20019;-80
2023/01/30 03:55:43;;;;;;;35.00;16.30;;;;;;;;;;6105896;23;20416;-81
2023/01/30 03:58:29;;;;;;;38.72;17.25;;;;;;;;;;6105777;23;20018;-81
2023/01/30 04:01:16;;;;;;;36.78;16.60;;;;;;;;;;6106319;23;20344;-80
2023/01/30 04:04:01;;;;;;;44.90;18.10;;;;;;;;;;6105629;23;20456;-80
2023/01/30 04:06:47;;;;;;;44.75;16.92;;;;;;;;;;6105807;23;20023;-81
2023/01/30 04:09:32;;;;;;;40.63;18.77;;;;;;;;;;6107054;23;20022;-80
2023/01/30 04:12:18;;;;;;;56.42;22.38;;;;;;;;;;6085626;23;20022;-80
2023/01/30 04:15:11;;;;;;;48.13;20.20;;;;;;;;;;6106443;23;20018;-80
2023/01/30 04:18:05;;;;;;;36.53;16.55;;;;;;;;;;6106778;23;20022;-81
2023/01/30 04:20:59;;;;;;;39.78;18.63;;;;;;;;;;6105558;23;20023;-81
2023/01/30 04:23:52;;;;;;;37.63;14.88;;;;;;;;;;6087884;23;20440;-80
2023/01/30 04:26:38;;;;;;;41.30;19.98;;;;;;;;;;6108942;23;20348;-81
2023/01/30 04:29:23;;;;;;;50.85;22.50;;;;;;;;;;6087562;23;20018;-81
2023/01/30 04:32:11;;;;;;;51.03;22.00;;;;;;;;;;6087217;23;20018;-81
2023/01/30 04:34:57;;;;;;;43.25;17.35;;;;;;;;;;6087286;23;20027;-81
2023/01/30 04:37:43;;;;;;;50.97;20.23;;;;;;;;;;6108852;23;20023;-81
2023/01/30 04:40:32;;;;;;;44.65;19.48;;;;;;;;;;6087260;23;20034;-81
2023/01/30 04:43:18;;;;;;;45.63;20.23;;;;;;;;;;6067066;23;20022;-80
2023/01/30 04:46:22;;;;;;;41.75;17.27;;;;;;;;;;6108667;23;20018;-81
2023/01/30 04:49:10;;;;;;;42.08;18.77;;;;;;;;;;6108615;23;20018;-81
2023/01/30 04:51:56;;;;;;;47.10;20.67;;;;;;;;;;6087028;23;20022;-80
2023/01/30 04:54:40;;;;;;;42.13;18.23;;;;;;;;;;6108552;23;20018;-79
2023/01/30 04:57:26;;;;;;;43.42;18.90;;;;;;;;;;6066493;23;20018;-79
2023/01/30 05:00:12;;;;;;;41.05;17.80;;;;;;;;;;6066878;23;20018;-81
2023/01/30 05:03:05;;;;;;;44.03;19.90;;;;;;;;;;6066981;23;20018;-81
2023/01/30 05:05:50;;;;;;;40.20;18.50;;;;;;;;;;6086553;23;20026;-81
2023/01/30 05:08:36;;;;;;;42.50;19.02;;;;;;;;;;6108831;23;20018;-80
2023/01/30 05:11:22;;;;;;;45.67;19.75;;;;;;;;;;6108733;23;20026;-80
2023/01/30 05:14:07;;;;;;;51.63;21.08;;;;;;;;;;6086453;23;20344;-82
2023/01/30 05:16:52;;;;;;;53.90;22.63;;;;;;;;;;6086008;23;20023;-81
2023/01/30 05:19:38;;;;;;;55.25;22.52;;;;;;;;;;6086498;23;20022;-81
2023/01/30 05:22:23;;;;;;;54.10;22.70;;;;;;;;;;6100224;23;20018;-81
2023/01/30 05:25:08;;;;;;;57.42;23.83;;;;;;;;;;6108357;23;20022;-81
2023/01/30 05:27:54;;;;;;;59.97;24.25;;;;;;;;;;6086891;23;20022;-82
2023/01/30 05:30:39;;;;;;;59.22;25.90;;;;;;;;;;6108351;23;20022;-81
2023/01/30 05:33:24;;;;;;;57.47;25.08;;;;;;;;;;6086847;23;20023;-80
2023/01/30 05:36:14;;;;;;;62.15;24.70;;;;;;;;;;6087102;23;20023;-81
2023/01/30 05:38:59;;;;;;;54.60;23.20;;;;;;;;;;6108243;23;20022;-80
2023/01/30 05:41:44;;;;;;;52.28;21.73;;;;;;;;;;6108049;23;20014;-80
2023/01/30 05:44:30;;;;;;;50.50;22.80;;;;;;;;;;6086261;23;20022;-81
2023/01/30 05:47:16;;;;;;;49.05;22.27;;;;;;;;;;6086805;23;20437;-81
2023/01/30 05:50:01;;;;;;;44.58;21.52;;;;;;;;;;6087169;23;20422;-81
2023/01/30 05:52:47;;;;;;;52.72;21.60;;;;;;;;;;6108148;23;20348;-81
2023/01/30 05:55:32;;;;;;;52.05;23.17;;;;;;;;;;6107504;23;20022;-81
2023/01/30 05:58:17;;;;;;;44.65;21.70;;;;;;;;;;6086569;23;20023;-80
2023/01/30 06:01:05;;;;;;;46.33;21.67;;;;;;;;;;6108036;23;20018;-80
2023/01/30 06:03:50;;;;;;;55.40;22.88;;;;;;;;;;6086069;23;20018;-81
2023/01/30 06:06:35;;;;;;;50.90;22.25;;;;;;;;;;6086227;23;20022;-80
2023/01/30 06:09:20;;;;;;;59.75;26.52;;;;;;;;;;6107808;23;20022;-81
2023/01/30 06:12:06;;;;;;;88.78;35.53;;;;;;;;;;6085823;23;20444;-81
2023/01/30 06:14:51;;;;;;;69.05;32.75;;;;;;;;;;6086185;23;20018;-79
2023/01/30 06:17:42;;;;;;;64.35;28.58;;;;;;;;;;6107427;23;20336;-81
2023/01/30 06:20:27;;;;;;;60.47;25.27;;;;;;;;;;6086052;23;20022;-81
2023/01/30 06:23:12;;;;;;;56.88;23.40;;;;;;;;;;6086710;23;20014;-81
2023/01/30 06:25:58;;;;;;;52.55;22.98;;;;;;;;;;6089760;23;20026;-80
2023/01/30 06:28:43;;;;;;;49.63;21.90;;;;;;;;;;6111319;23;20026;-80
2023/01/30 06:31:29;;;;;;;43.50;19.65;;;;;;;;;;6110147;23;20018;-81
2023/01/30 06:34:14;;;;;;;40.67;19.83;;;;;;;;;;6111886;23;20022;-80
2023/01/30 06:37:00;;;;;;;42.80;19.55;;;;;;;;;;6090719;23;20018;-79
2023/01/30 06:39:45;;;;;;;39.38;17.45;;;;;;;;;;6111663;23;20022;-80
2023/01/30 06:42:30;;;;;;;36.50;18.02;;;;;;;;;;6111694;23;20018;-81
2023/01/30 06:45:18;;;;;;;40.78;18.63;;;;;;;;;;6065427;23;20102;-81
2023/01/30 06:48:03;;;;;;;50.45;21.42;;;;;;;;;;6085941;23;20022;-81
2023/01/30 06:50:48;;;;;;;152.82;57.83;;;;;;;;;;6107289;23;20634;-81
2023/01/30 06:53:34;;;;;;;46.90;23.38;;;;;;;;;;6107975;23;20379;-81
2023/01/30 06:56:20;;;;;;;60.00;27.65;;;;;;;;;;6107339;23;20022;-81
2023/01/30 06:59:06;;;;;;;78.10;32.65;;;;;;;;;;6065760;23;20015;-80
2023/01/30 07:01:51;;;;;;;110.63;46.90;;;;;;;;;;6107914;23;20022;-81
2023/01/30 07:04:37;;;;;;;77.30;36.95;;;;;;;;;;6085529;23;20026;-81
2023/01/30 07:07:22;;;;;;;84.07;38.92;;;;;;;;;;6108256;23;20417;-81
2023/01/30 07:10:11;;;;;;;108.40;48.10;;;;;;;;;;6084882;23;20022;-81
2023/01/30 07:12:57;;;;;;;84.55;36.80;;;;;;;;;;6085611;23;20344;-81
2023/01/30 07:15:43;;;;;;;62.63;28.40;;;;;;;;;;6107428;23;20023;-81
2023/01/30 07:18:27;;;;;;;57.03;26.52;;;;;;;;;;6065484;23;20022;-81
2023/01/30 07:21:13;;;;;;;46.42;23.40;;;;;;;;;;6104289;23;20412;-81
2023/01/30 07:23:58;;;;;;;49.67;23.25;;;;;;;;;;6086099;23;20022;-80
2023/01/30 07:26:47;;;;;;;41.33;20.17;;;;;;;;;;6107015;23;20444;-80
2023/01/30 07:29:34;;;;;;;44.92;21.45;;;;;;;;;;6107584;23;20018;-80
2023/01/30 07:32:20;;;;;;;43.67;21.55;;;;;;;;;;6107073;23;20022;-81
2023/01/30 07:35:06;;;;;;;52.08;22.95;;;;;;;;;;6065694;23;20018;-80
2023/01/30 07:37:51;;;;;;;50.60;24.17;;;;;;;;;;6107225;23;20432;-80
2023/01/30 07:40:37;;;;;;;60.30;25.98;;;;;;;;;;6106852;23;20357;-81
2023/01/30 07:43:23;;;;;;;58.85;28.77;;;;;;;;;;6107543;23;20022;-81
2023/01/30 07:46:08;;;;;;;63.47;28.38;;;;;;;;;;6106955;23;20348;-81
2023/01/30 07:48:53;;;;;;;86.40;37.92;;;;;;;;;;6085905;23;20452;-81
2023/01/30 07:51:38;;;;;;;100.22;42.13;;;;;;;;;;6085965;23;20022;-80
2023/01/30 07:54:23;;;;;;;98.22;41.22;;;;;;;;;;6084998;23;20348;-81
2023/01/30 07:57:09;;;;;;;71.60;29.95;;;;;;;;;;6085656;23;20451;-79
2023/01/30 07:59:54;;;;;;;67.55;31.73;;;;;;;;;;6106981;23;20026;-81
2023/01/30 08:02:39;;;;;;;75.53;32.13;;;;;;;;;;6106597;23;20026;-80
2023/01/30 08:05:25;;;;;;;72.85;33.17;;;;;;;;;;6107884;23;20026;-80
2023/01/30 08:08:11;;;;;;;80.53;34.78;;;;;;;;;;6106399;23;20019;-79
2023/01/30 08:10:56;;;;;;;76.45;31.60;;;;;;;;;;6107240;23;20408;-80
2023/01/30 08:13:42;;;;;;;72.65;31.85;;;;;;;;;;6106777;23;20344;-80
2023/01/30 08:16:27;;;;;;;75.30;32.08;;;;;;;;;;6106669;23;20023;-80
2023/01/30 08:19:13;;;;;;;71.30;31.75;;;;;;;;;;6107142;23;20018;-80
2023/01/30 08:21:58;;;;;;;54.05;24.27;;;;;;;;;;6099594;23;20023;-79
2023/01/30 08:24:43;;;;;;;54.03;22.73;;;;;;;;;;6085518;23;20022;-81
2023/01/30 08:27:28;;;;;;;72.35;30.08;;;;;;;;;;6107084;23;20023;-81
2023/01/30 08:30:13;;;;;;;57.05;26.02;;;;;;;;;;6106511;23;20022;-80
2023/01/30 08:32:59;;;;;;;44.70;19.30;;;;;;;;;;6107102;23;20019;-79
2023/01/30 08:35:44;;;;;;;55.03;25.55;;;;;;;;;;6106172;23;20018;-79
2023/01/30 08:38:30;;;;;;;46.47;21.65;;;;;;;;;;6107374;23;20022;-78
2023/01/30 08:41:15;;;;;;;57.20;23.92;;;;;;;;;;6106949;23;20022;-82
2023/01/30 08:44:00;;;;;;;50.30;21.73;;;;;;;;;;6084636;23;20015;-80
2023/01/30 08:46:45;;;;;;;43.03;18.52;;;;;;;;;;6085795;23;20026;-81
2023/01/30 08:49:30;;;;;;;48.65;21.20;;;;;;;;;;6085101;23;20018;-81
2023/01/30 08:52:15;;;;;;;53.22;21.88;;;;;;;;;;6106972;23;20022;-81
2023/01/30 08:55:00;;;;;;;54.85;23.95;;;;;;;;;;6085650;23;20026;-81
2023/01/30 08:57:47;;;;;;;44.85;19.30;;;;;;;;;;6106335;23;20022;-81
2023/01/30 09:00:32;;;;;;;46.05;20.98;;;;;;;;;;6107054;23;20052;-81
2023/01/30 09:03:17;;;;;;;36.90;16.52;;;;;;;;;;6106937;23;20022;-80
2023/01/30 09:06:04;;;;;;;35.85;16.73;;;;;;;;;;6106786;23;20023;-81
2023/01/30 09:08:49;;;;;;;39.28;17.35;;;;;;;;;;6107973;23;20026;-81
2023/01/30 09:11:34;;;;;;;33.08;14.50;;;;;;;;;;6107989;23;20018;-82
2023/01/30 09:14:19;;;;;;;41.42;19.92;;;;;;;;;;6087209;23;20022;-82
2023/01/30 09:17:05;;;;;;;43.22;18.95;;;;;;;;;;6087103;23;20018;-80
2023/01/30 09:19:50;;;;;;;43.67;20.27;;;;;;;;;;6107959;23;20073;-81
2023/01/30 09:22:36;;;;;;;44.45;18.45;;;;;;;;;;6100628;23;20441;-82
2023/01/30 09:25:22;;;;;;;42.42;18.58;;;;;;;;;;6107951;23;20022;-83
2023/01/30 09:28:07;;;;;;;41.90;18.40;;;;;;;;;;6108724;23;20018;-81
2023/01/30 09:30:59;;;;;;;22.52;9.07;;;;;;;;;;6087342;23;20019;-82
2023/01/30 09:33:44;;;;;;;36.50;16.38;;;;;;;;;;6107739;23;20022;-82
2023/01/30 09:36:29;;;;;;;24.05;12.23;;;;;;;;;;6108496;23;20440;-80
2023/01/30 09:39:15;;;;;;;37.25;16.95;;;;;;;;;;6086371;23;20022;-81
2023/01/30 09:42:03;;;;;;;36.63;18.00;;;;;;;;;;6086927;23;20022;-81
2023/01/30 09:45:20;;;;;;;43.35;20.75;;;;;;;;;;6108821;23;20022;-81
2023/01/30 09:48:16;;;;;;;44.83;20.02;;;;;;;;;;6021997;23;20018;-80
2023/01/30 09:51:31;;;;;;;40.22;19.95;;;;;;;;;;6086876;23;20022;-81
2023/01/30 09:54:21;;;;;;;;;;;;;;;;;;6108243;23;20337;-81
2023/01/30 09:57:06;;;;;;;5.43;4.40;;;;;;;;;;6108164;23;19913;-81
2023/01/30 09:59:59;;;;;;;29.77;12.80;;;;;;;;;;6107638;23;20019;-82
2023/01/30 10:03:03;;;;;;;32.70;15.20;;;;;;;;;;6086498;23;20022;-81
2023/01/30 10:05:51;;;;;;;43.40;20.87;;;;;;;;;;6108503;23;20022;-82
2023/01/30 10:09:00;;;;;;;47.95;21.65;;;;;;;;;;6085958;23;20022;-81
2023/01/30 10:11:55;;;;;;;47.70;21.35;;;;;;;;;;6086993;23;20018;-81
2023/01/30 10:14:52;;;;;;;44.78;19.90;;;;;;;;;;6086235;23;20023;-80
2023/01/30 10:17:56;;;;;;;50.38;22.80;;;;;;;;;;6086673;23;20022;-81
2023/01/30 10:21:02;;;;;;;45.25;22.08;;;;;;;;;;6084617;23;20352;-83
2023/01/30 10:24:10;;;;;;;;;;;;;;;;;;6108255;23;20433;-82
2023/01/30 10:26:56;;;;;;;44.92;22.02;;;;;;;;;;6086366;23;19913;-81
2023/01/30 10:29:50;;;;;;;39.92;18.45;;;;;;;;;;6107273;23;20340;-81
2023/01/30 10:32:59;;;;;;;40.90;20.25;;;;;;;;;;6107894;23;20022;-80
2023/01/30 10:36:02;;;;;;;22.85;10.70;;;;;;;;;;6107784;23;20336;-82
2023/01/30 10:38:52;;;;;;;43.72;20.55;;;;;;;;;;6107524;23;20026;-80
2023/01/30 10:41:54;;;;;;;45.10;20.13;;;;;;;;;;6108128;23;20332;-80
2023/01/30 10:44:41;;;;;;;44.90;22.25;;;;;;;;;;6107626;23;20023;-80
2023/01/30 10:47:33;;;;;;;58.85;22.88;;;;;;;;;;6107415;23;20019;-80
2023/01/30 10:50:29;;;;;;;46.70;22.17;;;;;;;;;;6107755;23;20022;-81
2023/01/30 10:53:39;;;;;;;49.15;23.25;;;;;;;;;;6107440;23;20039;-82
2023/01/30 10:56:41;;;;;;;48.25;21.38;;;;;;;;;;6086075;23;20022;-81
2023/01/30 10:59:42;;;;;;;36.25;16.55;;;;;;;;;;6085631;23;20336;-80
2023/01/30 11:02:59;;;;;;;43.22;20.17;;;;;;;;;;6107828;23;20023;-80
2023/01/30 11:05:54;;;;;;;46.05;21.08;;;;;;;;;;6034818;23;20019;-81
2023/01/30 11:08:39;;;;;;;10.32;7.20;;;;;;;;;;6086258;23;20340;-81
2023/01/30 11:11:30;;;;;;;30.08;13.90;;;;;;;;;;6108006;23;20019;-80
2023/01/30 11:14:16;;;;;;;38.30;19.17;;;;;;;;;;6106940;23;20022;-82
2023/01/30 11:17:01;;;;;;;29.80;12.73;;;;;;;;;;6107757;23;20022;-81
2023/01/30 11:19:55;;;;;;;25.45;12.48;;;;;;;;;;6106548;23;20018;-81
2023/01/30 11:22:46;;;;;;;18.60;10.15;;;;;;;;;;6098891;23;20023;-80
2023/01/30 11:25:49;;;;;;;24.80;13.55;;;;;;;;;;6107641;23;20026;-81
2023/01/30 11:28:45;;;;;;;40.67;18.92;;;;;;;;;;6106870;23;20022;-82
2023/01/30 11:31:31;;;;;;;40.70;17.95;;;;;;;;;;6097264;23;20022;-81
2023/01/30 11:34:19;;;;;;;47.40;22.20;;;;;;;;;;6106706;23;20018;-82
2023/01/30 11:37:25;;;;;;;25.42;12.57;;;;;;;;;;6107245;23;20023;-80
2023/01/30 11:40:16;;;;;;;30.48;13.75;;;;;;;;;;6085513;23;20033;-80
2023/01/30 11:43:10;;;;;;;36.35;13.82;;;;;;;;;;6085372;23;20022;-82
2023/01/30 11:45:57;;;;;;;12.88;6.43;;;;;;;;;;6107183;23;20432;-81
2023/01/30 11:48:52;;;;;;;34.72;15.77;;;;;;;;;;6106784;23;20026;-80
2023/01/30 11:51:42;;;;;;;6.82;4.28;;;;;;;;;;6086158;23;20018;-81
2023/01/30 11:54:34;;;;;;;31.67;14.07;;;;;;;;;;6107184;23;20030;-81
2023/01/30 11:57:20;;;;;;;47.10;18.95;;;;;;;;;;6106652;23;20018;-81
2023/01/30 12:00:12;;;;;;;50.60;22.65;;;;;;;;;;6107330;23;20018;-80
2023/01/30 12:03:04;;;;;;;48.95;21.83;;;;;;;;;;6086406;23;20027;-82
2023/01/30 12:05:49;;;;;;;48.97;20.83;;;;;;;;;;6107157;23;20444;-81
2023/01/30 12:08:40;;;;;;;42.28;18.63;;;;;;;;;;6065307;23;20022;-80
2023/01/30 12:11:26;;;;;;;41.70;18.77;;;;;;;;;;6085240;23;20018;-80
2023/01/30 12:14:17;;;;;;;40.42;19.02;;;;;;;;;;6107309;23;20023;-81
2023/01/30 12:17:12;;;;;;;44.83;20.38;;;;;;;;;;6085102;23;20022;-80
2023/01/30 12:19:58;;;;;;;55.38;24.20;;;;;;;;;;6085722;23;20014;-81
2023/01/30 12:23:07;;;;;;;46.70;22.10;;;;;;;;;;6098902;23;20408;-81
2023/01/30 12:26:09;;;;;;;41.33;20.17;;;;;;;;;;6035429;23;20425;-80
2023/01/30 12:29:16;;;;;;;39.35;16.35;;;;;;;;;;6086272;23;20022;-81
2023/01/30 12:32:16;;;;;;;11.00;5.28;;;;;;;;;;6106398;23;20026;-81
2023/01/30 12:35:13;;;;;;;39.90;19.05;;;;;;;;;;6085538;23;20026;-81
2023/01/30 12:38:13;;;;;;;47.60;20.27;;;;;;;;;;6084828;23;20022;-81
2023/01/30 12:41:26;;;;;;;45.92;20.80;;;;;;;;;;6107340;23;20022;-81
2023/01/30 12:44:37;;;;;;;40.92;19.35;;;;;;;;;;6107731;23;20347;-81
2023/01/30 12:47:53;;;;;;;45.30;20.58;;;;;;;;;;6087201;23;20054;-81
2023/01/30 12:50:57;;;;;;;43.17;20.20;;;;;;;;;;6108863;23;20022;-81
2023/01/30 12:54:12;;;;;;;43.15;18.63;;;;;;;;;;6086967;23;20022;-82
2023/01/30 12:57:28;;;;;;;44.03;20.60;;;;;;;;;;6108807;23;20022;-82
2023/01/30 13:00:27;;;;;;;39.45;18.60;;;;;;;;;;6108173;23;20022;-83
2023/01/30 13:03:38;;;;;;;46.25;21.00;;;;;;;;;;6087652;23;20026;-83
2023/01/30 13:06:55;;;;;;;41.88;21.55;;;;;;;;;;6107963;23;20018;-83
2023/01/30 13:09:52;;;;;;;38.78;19.58;;;;;;;;;;6087395;23;20026;-83
2023/01/30 13:13:13;;;;;;;35.95;17.80;;;;;;;;;;6086888;23;20023;-84
2023/01/30 13:16:20;;;;;;;39.50;18.58;;;;;;;;;;6087298;23;20022;-83
2023/01/30 13:19:20;;;;;;;39.60;18.25;;;;;;;;;;6086801;23;20022;-84
2023/01/30 13:22:28;;;;;;;27.63;13.07;;;;;;;;;;6091650;23;20022;-82
2023/01/30 13:25:37;;;;;;;37.55;17.27;;;;;;;;;;6108658;23;20022;-83
2023/01/30 13:28:26;;;;;;;38.78;17.45;;;;;;;;;;6107750;23;20432;-83
2023/01/30 13:31:16;;;;;;;45.72;19.63;;;;;;;;;;6107236;23;20018;-83
2023/01/30 13:34:06;;;;;;;36.03;17.33;;;;;;;;;;6106823;23;20019;-84
2023/01/30 13:37:06;;;;;;;36.08;17.75;;;;;;;;;;6107102;23;20022;-84
2023/01/30 13:39:54;;;;;;;36.50;17.52;;;;;;;;;;6107321;23;20022;-83
2023/01/30 13:43:00;;;;;;;35.42;17.10;;;;;;;;;;6106931;23;20344;-83
2023/01/30 13:45:49;;;;;;;33.92;17.10;;;;;;;;;;6108404;23;20022;-84
2023/01/30 13:49:12;;;;;;;43.10;17.30;;;;;;;;;;6086323;23;20349;-83
2023/01/30 13:52:06;;;;;;;41.80;21.75;;;;;;;;;;6108382;23;20018;-82
2023/01/30 13:54:56;;;;;;;36.80;17.52;;;;;;;;;;6086100;23;20022;-82
2023/01/30 13:58:01;;;;;;;39.42;18.45;;;;;;;;;;6106795;23;20352;-83
2023/01/30 14:00:55;;;;;;;38.63;20.35;;;;;;;;;;6108569;23;20023;-82
2023/01/30 14:03:41;;;;;;;38.70;17.80;;;;;;;;;;6108075;23;20022;-82
2023/01/30 14:06:36;;;;;;;40.53;20.35;;;;;;;;;;6086615;23;20026;-81
2023/01/30 14:09:32;;;;;;;38.42;19.88;;;;;;;;;;6086367;23;20440;-82
2023/01/30 14:12:22;;;;;;;37.35;18.02;;;;;;;;;;6108026;23;20022;-81
2023/01/30 14:15:13;;;;;;;34.28;17.20;;;;;;;;;;6106515;23;20023;-80
2023/01/30 14:18:05;;;;;;;45.75;21.00;;;;;;;;;;6086370;23;20022;-81
2023/01/30 14:20:51;;;;;;;58.47;25.88;;;;;;;;;;6105643;23;20424;-81
2023/01/30 14:23:37;;;;;;;57.97;27.42;;;;;;;;;;6065758;23;20014;-82
2023/01/30 14:26:47;;;;;;;50.80;25.48;;;;;;;;;;6086146;23;20022;-82
2023/01/30 14:29:41;;;;;;;78.47;35.08;;;;;;;;;;6107743;23;20328;-82
2023/01/30 14:32:53;;;;;;;281.43;107.77;;;;;;;;;;6085952;23;20023;-82
2023/01/30 14:35:38;;;;;;;388.77;190.68;;;;;;;;;;6086363;23;20022;-84
2023/01/30 14:38:35;;;;;;;320.65;135.57;;;;;;;;;;6107099;23;20018;-82
2023/01/30 14:41:22;;;;;;;609.45;317.10;;;;;;;;;;6086540;23;20018;-82
2023/01/30 14:44:08;;;;;;;390.77;211.95;;;;;;;;;;6107118;23;20422;-83
2023/01/30 14:46:54;;;;;;;157.13;83.00;;;;;;;;;;6085909;23;20057;-81
2023/01/30 14:49:42;;;;;;;132.20;73.65;;;;;;;;;;6086205;23;20022;-81
2023/01/30 14:52:41;;;;;;;67.55;35.72;;;;;;;;;;6107768;23;20348;-81
2023/01/30 14:55:28;;;;;;;77.22;37.47;;;;;;;;;;6107609;23;20022;-81
2023/01/30 14:58:17;;;;;;;100.90;46.33;;;;;;;;;;6084536;23;20018;-80
2023/01/30 15:01:03;;;;;;;59.85;29.98;;;;;;;;;;6106963;23;20340;-83
2023/01/30 15:03:49;;;;;;;82.18;37.50;;;;;;;;;;6086326;23;20022;-81
2023/01/30 15:06:35;;;;;;;86.40;38.97;;;;;;;;;;6106282;23;20554;-82
2023/01/30 15:09:25;;;;;;;95.50;45.85;;;;;;;;;;6085365;23;20360;-82
2023/01/30 15:12:17;;;;;;;124.53;59.15;;;;;;;;;;6064277;23;20014;-81
2023/01/30 15:15:08;;;;;;;83.90;41.72;;;;;;;;;;6085445;23;20444;-80
2023/01/30 15:18:06;;;;;;;46.65;24.08;;;;;;;;;;6085924;23;20022;-81
2023/01/30 15:21:30;;;;;;;70.07;32.83;;;;;;;;;;6105280;23;20023;-82
2023/01/30 15:24:15;;;;;;;105.63;46.50;;;;;;;;;;6107953;23;20023;-82
2023/01/30 15:27:31;;;;;;;138.43;61.53;;;;;;;;;;6106998;23;20030;-80
2023/01/30 15:30:47;;;;;;;89.32;39.95;;;;;;;;;;6057011;23;20019;-81
2023/01/30 15:33:31;;;;;;;109.15;55.00;;;;;;;;;;6107039;23;20026;-81
2023/01/30 15:36:24;;;;;;;211.30;92.45;;;;;;;;;;6107052;23;20352;-80
2023/01/30 15:39:26;;;;;;;132.38;60.05;;;;;;;;;;6085659;23;20368;-83
2023/01/30 15:42:15;;;;;;;175.00;87.60;;;;;;;;;;6085212;23;20368;-83
2023/01/30 15:45:37;;;;;;;124.78;58.42;;;;;;;;;;6107054;23;20030;-83
2023/01/30 15:48:31;;;;;;;103.68;48.25;;;;;;;;;;6106816;23;20023;-82
2023/01/30 15:51:28;;;;;;;107.85;46.72;;;;;;;;;;6085229;23;20018;-81
2023/01/30 15:54:18;;;;;;;169.20;72.65;;;;;;;;;;6084762;23;20022;-81
2023/01/30 15:57:04;;;;;;;107.95;44.20;;;;;;;;;;6064937;23;20022;-80
2023/01/30 15:59:53;;;;;;;89.28;40.45;;;;;;;;;;6107024;23;20026;-82
2023/01/30 16:02:41;;;;;;;105.13;44.63;;;;;;;;;;6107416;23;20018;-81
2023/01/30 16:05:28;;;;;;;78.82;36.13;;;;;;;;;;6106806;23;20023;-82
2023/01/30 16:08:25;;;;;;;97.68;42.28;;;;;;;;;;6085246;23;20374;-81
2023/01/30 16:11:10;;;;;;;90.60;38.55;;;;;;;;;;6107082;23;20022;-79
2023/01/30 16:13:55;;;;;;;80.10;33.60;;;;;;;;;;6106220;23;20452;-80
2023/01/30 16:17:05;;;;;;;89.22;37.85;;;;;;;;;;6085653;23;20023;-80
2023/01/30 16:19:51;;;;;;;83.72;36.30;;;;;;;;;;6110046;23;20022;-80
2023/01/30 16:22:36;;;;;;;94.22;44.50;;;;;;;;;;6105548;23;20018;-81
2023/01/30 16:25:26;;;;;;;122.65;58.10;;;;;;;;;;6110337;23;20022;-81
2023/01/30 16:28:10;;;;;;;83.70;37.08;;;;;;;;;;6109863;23;20030;-81
2023/01/30 16:31:02;;;;;;;84.10;40.05;;;;;;;;;;6088976;23;20372;-79
2023/01/30 16:33:51;;;;;;;89.85;45.28;;;;;;;;;;6110065;23;20019;-79
2023/01/30 16:36:40;;;;;;;101.20;47.70;;;;;;;;;;6109749;23;20022;-81
2023/01/30 16:39:32;;;;;;;114.65;48.38;;;;;;;;;;6110357;23;20022;-80
2023/01/30 16:42:26;;;;;;;95.43;41.67;;;;;;;;;;6109325;23;20018;-82
2023/01/30 16:45:12;;;;;;;107.22;46.35;;;;;;;;;;6109617;23;20014;-81